createdAt,value
2018-11-26T00:00:48.058Z,35.20
2018-11-26T00:03:16.280Z,39.07
2018-11-26T00:05:44.680Z,35.50
2018-11-26T00:08:13.325Z,36.07
2018-11-26T00:11:08.318Z,31.87
2018-11-26T00:13:36.508Z,34.07
2018-11-26T00:16:05.399Z,31.43
2018-11-26T00:18:33.659Z,31.37
2018-11-26T00:21:01.849Z,28.60
2018-11-26T00:23:30.111Z,26.77
2018-11-26T00:25:58.304Z,29.33
2018-11-26T00:28:26.475Z,28.33
2018-11-26T00:30:54.688Z,26.67
2018-11-26T00:33:22.907Z,26.87
2018-11-26T00:35:51.074Z,28.70
2018-11-26T00:38:19.281Z,23.13
2018-11-26T00:40:47.741Z,22.47
2018-11-26T00:43:15.987Z,23.40
2018-11-26T00:45:44.197Z,23.57
2018-11-26T00:48:12.395Z,23.23
2018-11-26T00:50:40.594Z,23.87
2018-11-26T00:53:09.352Z,27.00
2018-11-26T00:55:37.569Z,23.83
2018-11-26T00:58:05.794Z,24.67
2018-11-26T01:00:33.984Z,23.10
2018-11-26T01:03:02.232Z,27.40
2018-11-26T01:05:34.335Z,24.40
2018-11-26T01:08:02.686Z,22.07
2018-11-26T01:10:30.943Z,24.30
2018-11-26T01:12:59.134Z,22.77
2018-11-26T01:15:27.351Z,21.37
2018-11-26T01:17:55.918Z,25.57
2018-11-26T01:22:58.695Z,22.57
2018-11-26T01:25:26.937Z,21.93
2018-11-26T01:27:56.047Z,20.10
2018-11-26T01:30:24.251Z,22.83
2018-11-26T01:32:52.715Z,22.77
2018-11-26T01:35:20.966Z,23.67
2018-11-26T01:37:49.174Z,25.30
2018-11-26T01:40:23.140Z,22.00
2018-11-26T01:42:51.344Z,23.70
2018-11-26T01:45:20.906Z,20.63
2018-11-26T01:47:49.125Z,23.87
2018-11-26T01:50:17.316Z,25.87
2018-11-26T01:52:45.488Z,24.90
2018-11-26T01:55:13.635Z,23.57
2018-11-26T01:57:41.802Z,21.93
2018-11-26T02:00:18.907Z,20.17
2018-11-26T02:02:47.415Z,20.97
2018-11-26T02:05:15.599Z,23.87
2018-11-26T02:07:44.867Z,21.40
2018-11-26T02:10:14.151Z,24.40
2018-11-26T02:12:42.380Z,23.63
2018-11-26T02:15:11.801Z,20.50
2018-11-26T02:17:40.115Z,22.00
2018-11-26T02:20:09.283Z,21.23
2018-11-26T02:22:37.659Z,21.43
2018-11-26T02:25:07.008Z,21.23
2018-11-26T02:27:35.239Z,18.60
2018-11-26T02:30:03.487Z,21.47
2018-11-26T02:32:31.934Z,20.47
2018-11-26T02:35:00.165Z,20.13
2018-11-26T02:37:28.903Z,23.93
2018-11-26T02:39:57.077Z,20.30
2018-11-26T02:42:25.294Z,23.50
2018-11-26T02:44:54.023Z,21.40
2018-11-26T02:47:22.191Z,20.50
2018-11-26T02:49:51.367Z,21.10
2018-11-26T02:52:19.535Z,21.47
2018-11-26T02:54:47.758Z,19.67
2018-11-26T02:57:15.980Z,19.20
2018-11-26T02:59:46.107Z,18.70
2018-11-26T03:02:14.275Z,20.27
2018-11-26T03:04:42.466Z,20.60
2018-11-26T03:07:10.630Z,21.00
2018-11-26T03:09:38.847Z,19.10
2018-11-26T03:12:07.059Z,22.00
2018-11-26T03:14:35.263Z,18.60
2018-11-26T03:17:03.468Z,20.60
2018-11-26T03:19:31.815Z,21.07
2018-11-26T03:22:00.005Z,20.93
2018-11-26T03:24:28.970Z,21.97
2018-11-26T03:26:57.175Z,21.40
2018-11-26T03:29:25.384Z,20.97
2018-11-26T03:31:53.590Z,22.17
2018-11-26T03:34:21.815Z,22.90
2018-11-26T03:36:50.030Z,21.23
2018-11-26T03:39:18.267Z,20.20
2018-11-26T03:41:46.705Z,22.27
2018-11-26T03:44:15.073Z,20.30
2018-11-26T03:46:43.293Z,22.67
2018-11-26T03:49:12.223Z,22.93
2018-11-26T03:51:40.410Z,21.00
2018-11-26T03:54:08.963Z,25.40
2018-11-26T03:56:37.171Z,24.17
2018-11-26T03:59:05.382Z,28.03
2018-11-26T04:01:33.578Z,21.60
2018-11-26T04:04:01.805Z,20.63
2018-11-26T04:06:30.464Z,22.97
2018-11-26T04:08:58.683Z,22.17
2018-11-26T04:11:26.909Z,22.73
2018-11-26T04:13:55.103Z,24.07
2018-11-26T04:16:23.354Z,22.43
2018-11-26T04:18:51.583Z,23.30
2018-11-26T04:21:19.836Z,20.13
2018-11-26T04:23:48.096Z,21.63
2018-11-26T04:26:16.293Z,22.13
2018-11-26T04:28:44.554Z,22.87
2018-11-26T04:31:12.771Z,23.63
2018-11-26T04:33:40.978Z,22.23
2018-11-26T04:36:09.143Z,22.20
2018-11-26T04:38:40.776Z,23.23
2018-11-26T04:41:09.066Z,23.90
2018-11-26T04:43:37.228Z,23.93
2018-11-26T04:46:05.447Z,25.10
2018-11-26T04:48:35.549Z,23.87
2018-11-26T04:51:03.716Z,36.37
2018-11-26T04:53:31.907Z,30.97
2018-11-26T04:56:00.101Z,27.60
2018-11-26T04:58:28.314Z,26.00
2018-11-26T05:00:56.489Z,25.93
2018-11-26T05:03:25.064Z,26.37
2018-11-26T05:05:53.586Z,26.73
2018-11-26T05:08:21.760Z,28.63
2018-11-26T05:10:51.111Z,27.13
2018-11-26T05:13:18.277Z,26.53
2018-11-26T05:15:46.458Z,29.33
2018-11-26T05:18:14.627Z,27.87
2018-11-26T05:20:42.811Z,28.03
2018-11-26T05:23:11.069Z,28.17
2018-11-26T05:25:39.276Z,30.60
2018-11-26T05:28:07.977Z,33.53
2018-11-26T05:30:36.261Z,32.43
2018-11-26T05:33:05.659Z,32.73
2018-11-26T05:35:33.823Z,32.37
2018-11-26T05:38:02.188Z,35.40
2018-11-26T05:40:30.453Z,31.63
2018-11-26T05:42:58.603Z,33.10
2018-11-26T05:45:26.823Z,31.83
2018-11-26T05:47:55.031Z,28.40
2018-11-26T05:50:23.255Z,30.60
2018-11-26T05:52:51.456Z,32.37
2018-11-26T05:55:19.610Z,30.13
2018-11-26T05:57:47.822Z,31.93
2018-11-26T06:00:23.687Z,32.10
2018-11-26T06:02:51.919Z,33.73
2018-11-26T06:05:20.135Z,31.90
2018-11-26T06:07:48.335Z,34.43
2018-11-26T06:10:16.711Z,32.50
2018-11-26T06:12:44.931Z,29.40
2018-11-26T06:15:13.563Z,31.60
2018-11-26T06:17:41.797Z,33.23
2018-11-26T06:20:11.896Z,32.37
2018-11-26T06:22:41.487Z,34.17
2018-11-26T06:25:13.153Z,35.07
2018-11-26T06:27:41.334Z,34.43
2018-11-26T06:30:14.821Z,34.00
2018-11-26T06:32:43.310Z,33.17
2018-11-26T06:35:17.723Z,35.97
2018-11-26T06:37:45.967Z,36.57
2018-11-26T06:40:14.415Z,37.37
2018-11-26T06:42:42.591Z,36.23
2018-11-26T06:45:13.118Z,32.47
2018-11-26T06:47:41.815Z,34.00
2018-11-26T06:50:13.152Z,35.60
2018-11-26T06:52:41.392Z,33.70
2018-11-26T06:55:11.622Z,36.53
2018-11-26T06:57:39.813Z,33.77
2018-11-26T07:00:14.477Z,36.53
2018-11-26T07:02:42.726Z,35.70
2018-11-26T07:05:13.347Z,36.30
2018-11-26T07:07:41.620Z,33.37
2018-11-26T07:10:10.842Z,34.90
2018-11-26T07:12:39.057Z,33.53
2018-11-26T07:15:09.387Z,31.97
2018-11-26T07:17:37.563Z,29.67
2018-11-26T07:20:09.213Z,32.83
2018-11-26T07:22:37.480Z,31.67
2018-11-26T07:25:07.719Z,31.97
2018-11-26T07:27:35.951Z,32.50
2018-11-26T07:30:04.646Z,30.53
2018-11-26T07:32:32.917Z,39.70
2018-11-26T07:35:01.242Z,46.17
2018-11-26T07:37:29.484Z,36.27
2018-11-26T07:39:57.657Z,40.77
2018-11-26T07:42:25.855Z,43.07
2018-11-26T07:44:54.107Z,38.93
2018-11-26T07:47:22.292Z,32.00
2018-11-26T07:49:50.523Z,25.87
2018-11-26T07:52:18.727Z,34.17
2018-11-26T07:54:46.961Z,37.60
2018-11-26T07:57:15.226Z,35.57
2018-11-26T07:59:43.443Z,33.23
2018-11-26T08:02:11.963Z,38.57
2018-11-26T08:04:40.635Z,30.30
2018-11-26T08:07:09.385Z,27.80
2018-11-26T08:09:37.754Z,33.63
2018-11-26T08:12:06.218Z,33.77
2018-11-26T08:14:34.741Z,27.77
2018-11-26T08:17:03.283Z,23.17
2018-11-26T08:19:31.456Z,23.87
2018-11-26T08:21:59.699Z,22.20
2018-11-26T08:24:27.859Z,23.67
2018-11-26T08:26:56.208Z,23.87
2018-11-26T08:29:24.378Z,23.73
2018-11-26T08:31:52.535Z,23.23
2018-11-26T08:34:20.715Z,24.17
2018-11-26T08:36:53.151Z,21.63
2018-11-26T08:39:25.581Z,22.93
2018-11-26T08:41:54.071Z,20.40
2018-11-26T08:44:54.167Z,20.37
2018-11-26T08:47:28.207Z,21.80
2018-11-26T08:49:56.420Z,22.17
2018-11-26T08:52:24.631Z,18.13
2018-11-26T08:54:53.556Z,18.73
2018-11-26T08:57:21.820Z,19.00
2018-11-26T08:59:50.010Z,20.27
2018-11-26T09:02:19.477Z,18.60
2018-11-26T09:04:48.166Z,17.33
2018-11-26T09:07:17.079Z,20.53
2018-11-26T09:09:45.921Z,21.40
2018-11-26T09:12:14.870Z,20.73
2018-11-26T09:14:43.087Z,19.37
2018-11-26T09:17:11.739Z,19.00
2018-11-26T09:19:39.887Z,20.47
2018-11-26T09:24:50.860Z,29.63
2018-11-26T09:27:19.047Z,29.43
2018-11-26T09:29:48.186Z,33.10
2018-11-26T09:32:16.407Z,23.60
2018-11-26T09:34:44.595Z,19.37
2018-11-26T09:37:12.940Z,21.40
2018-11-26T09:39:41.183Z,20.37
2018-11-26T09:42:09.401Z,21.27
2018-11-26T09:44:37.565Z,19.53
2018-11-26T09:47:05.921Z,19.67
2018-11-26T09:49:34.227Z,18.53
2018-11-26T09:52:02.495Z,19.73
2018-11-26T09:54:30.721Z,21.80
2018-11-26T09:56:58.971Z,16.87
2018-11-26T09:59:27.224Z,20.10
2018-11-26T10:01:55.439Z,19.47
2018-11-26T10:04:23.675Z,19.87
2018-11-26T10:06:52.667Z,16.20
2018-11-26T10:09:21.141Z,16.17
2018-11-26T10:11:49.326Z,21.43
2018-11-26T10:14:17.634Z,19.17
2018-11-26T10:16:45.973Z,16.93
2018-11-26T10:19:14.171Z,16.30
2018-11-26T10:21:42.478Z,16.00
2018-11-26T10:24:10.751Z,14.93
2018-11-26T10:26:38.998Z,15.03
2018-11-26T10:29:07.191Z,15.33
2018-11-26T10:31:35.491Z,15.43
2018-11-26T10:34:03.711Z,15.30
2018-11-26T10:36:32.075Z,14.03
2018-11-26T10:39:00.249Z,14.73
2018-11-26T10:41:28.415Z,15.37
2018-11-26T10:43:56.624Z,14.23
2018-11-26T10:46:24.861Z,14.07
2018-11-26T10:48:53.096Z,11.53
2018-11-26T10:51:21.327Z,13.00
2018-11-26T10:53:49.522Z,12.10
2018-11-26T10:56:17.682Z,11.83
2018-11-26T10:58:45.950Z,11.13
2018-11-26T11:01:19.923Z,13.03
2018-11-26T11:03:50.225Z,13.23
2018-11-26T11:06:18.459Z,12.20
2018-11-26T11:08:47.379Z,13.30
2018-11-26T11:11:16.469Z,13.13
2018-11-26T11:13:44.129Z,12.17
2018-11-26T11:16:12.354Z,13.97
2018-11-26T11:18:40.780Z,12.47
2018-11-26T11:21:08.973Z,11.50
2018-11-26T11:23:37.959Z,10.77
2018-11-26T11:26:06.606Z,12.40
2018-11-26T11:28:34.819Z,12.80
2018-11-26T11:31:02.991Z,11.63
2018-11-26T11:33:31.171Z,15.97
2018-11-26T11:35:59.491Z,14.47
2018-11-26T11:38:28.757Z,12.20
2018-11-26T11:40:57.527Z,11.37
2018-11-26T11:43:25.692Z,11.37
2018-11-26T11:45:53.904Z,12.30
2018-11-26T11:48:22.063Z,12.33
2018-11-26T11:50:50.277Z,11.13
2018-11-26T11:53:18.504Z,11.57
2018-11-26T11:55:46.712Z,14.07
2018-11-26T11:58:14.900Z,12.37
2018-11-26T12:00:44.912Z,11.77
2018-11-26T12:03:16.262Z,13.87
2018-11-26T12:05:44.445Z,13.23
2018-11-26T12:08:12.725Z,15.73
2018-11-26T12:10:40.965Z,12.40
2018-11-26T12:13:10.392Z,14.17
2018-11-26T12:15:40.220Z,15.17
2018-11-26T12:18:09.142Z,14.50
2018-11-26T12:20:39.738Z,12.23
2018-11-26T12:23:07.992Z,13.60
2018-11-26T12:25:36.579Z,15.03
2018-11-26T12:28:04.714Z,14.50
2018-11-26T12:30:34.641Z,25.43
2018-11-26T12:33:03.290Z,24.50
2018-11-26T12:35:31.508Z,25.10
2018-11-26T12:38:00.463Z,19.00
2018-11-26T12:40:29.000Z,15.53
2018-11-26T12:42:58.607Z,18.40
2018-11-26T12:45:30.664Z,16.93
2018-11-26T12:47:58.905Z,13.97
2018-11-26T12:50:27.762Z,16.97
2018-11-26T12:52:56.509Z,15.23
2018-11-26T12:55:25.552Z,17.50
2018-11-26T12:57:54.573Z,14.60
2018-11-26T13:00:23.912Z,14.30
2018-11-26T13:02:56.887Z,17.07
2018-11-26T13:05:25.117Z,17.23
2018-11-26T13:07:54.236Z,15.87
2018-11-26T13:10:23.104Z,14.87
2018-11-26T13:12:52.220Z,13.60
2018-11-26T13:15:21.662Z,14.53
2018-11-26T13:17:49.822Z,16.50
2018-11-26T13:20:20.406Z,14.27
2018-11-26T13:22:48.792Z,15.03
2018-11-26T13:25:20.009Z,16.13
2018-11-26T13:27:49.483Z,16.33
2018-11-26T13:30:22.788Z,16.40
2018-11-26T13:32:53.158Z,16.30
2018-11-26T13:35:21.358Z,17.70
2018-11-26T13:37:49.592Z,17.90
2018-11-26T13:40:18.568Z,16.60
2018-11-26T13:42:47.077Z,15.10
2018-11-26T13:45:23.800Z,18.77
2018-11-26T13:47:52.000Z,20.23
2018-11-26T13:50:25.350Z,18.40
2018-11-26T13:52:53.587Z,18.03
2018-11-26T13:55:21.800Z,18.23
2018-11-26T13:57:50.033Z,20.43
2018-11-26T14:00:18.285Z,17.30
2018-11-26T14:02:46.481Z,18.10
2018-11-26T14:05:15.662Z,17.27
2018-11-26T14:07:44.210Z,20.10
2018-11-26T14:10:16.748Z,19.07
2018-11-26T14:12:45.860Z,19.97
2018-11-26T14:15:14.760Z,19.20
2018-11-26T14:17:43.017Z,17.47
2018-11-26T14:20:12.948Z,18.37
2018-11-26T14:22:41.187Z,18.87
2018-11-26T14:25:12.357Z,20.97
2018-11-26T14:27:40.993Z,21.97
2018-11-26T14:30:26.253Z,17.67
2018-11-26T14:32:54.879Z,16.83
2018-11-26T14:35:23.144Z,19.97
2018-11-26T14:37:56.415Z,21.40
2018-11-26T14:40:33.084Z,17.47
2018-11-26T14:43:01.653Z,18.07
2018-11-26T14:45:29.828Z,16.00
2018-11-26T14:47:58.028Z,18.87
2018-11-26T14:50:26.283Z,19.00
2018-11-26T14:52:54.498Z,18.03
2018-11-26T14:55:24.353Z,17.60
2018-11-26T14:57:53.559Z,17.83
2018-11-26T15:00:21.956Z,16.70
2018-11-26T15:02:50.176Z,19.30
2018-11-26T15:05:18.361Z,14.30
2018-11-26T15:07:46.757Z,20.03
2018-11-26T15:10:19.240Z,17.90
2018-11-26T15:12:48.126Z,21.07
2018-11-26T15:15:19.760Z,18.70
2018-11-26T15:17:48.110Z,24.57
2018-11-26T15:20:20.105Z,16.20
2018-11-26T15:22:48.792Z,15.60
2018-11-26T15:25:18.676Z,16.43
2018-11-26T15:27:46.902Z,19.67
2018-11-26T15:30:17.391Z,20.83
2018-11-26T15:32:45.578Z,15.90
2018-11-26T15:35:15.919Z,16.20
2018-11-26T15:37:44.190Z,16.57
2018-11-26T15:40:14.976Z,15.90
2018-11-26T15:42:43.278Z,16.77
2018-11-26T15:45:13.644Z,15.77
2018-11-26T15:47:41.864Z,19.37
2018-11-26T15:50:10.823Z,15.60
2018-11-26T15:52:39.072Z,20.67
2018-11-26T15:55:09.197Z,17.40
2018-11-26T15:57:37.386Z,16.70
2018-11-26T16:00:10.354Z,17.90
2018-11-26T16:02:38.543Z,17.27
2018-11-26T16:05:08.453Z,18.40
2018-11-26T16:07:36.684Z,17.40
2018-11-26T16:10:08.224Z,24.13
2018-11-26T16:12:36.472Z,21.17
2018-11-26T16:15:06.390Z,18.70
2018-11-26T16:17:34.613Z,21.33
2018-11-26T16:20:02.877Z,21.47
2018-11-26T16:22:31.048Z,20.40
2018-11-26T16:24:59.778Z,22.97
2018-11-26T16:27:28.227Z,21.07
2018-11-26T16:29:56.457Z,22.73
2018-11-26T16:32:24.647Z,28.67
2018-11-26T16:34:53.765Z,21.00
2018-11-26T16:37:21.957Z,20.27
2018-11-26T16:39:50.165Z,21.17
2018-11-26T16:42:18.374Z,20.43
2018-11-26T16:44:46.751Z,24.50
2018-11-26T16:47:14.949Z,22.37
2018-11-26T16:49:43.143Z,23.73
2018-11-26T16:52:11.408Z,26.53
2018-11-26T16:54:39.620Z,24.80
2018-11-26T16:57:07.832Z,23.53
2018-11-26T16:59:36.721Z,25.30
2018-11-26T17:02:04.989Z,22.30
2018-11-26T17:04:33.193Z,28.87
2018-11-26T17:07:01.420Z,26.13
2018-11-26T17:09:29.641Z,24.23
2018-11-26T17:11:57.870Z,27.33
2018-11-26T17:14:26.048Z,27.33
2018-11-26T17:16:54.294Z,25.00
2018-11-26T17:19:22.535Z,27.03
2018-11-26T17:21:50.690Z,28.30
2018-11-26T17:24:18.894Z,29.73
2018-11-26T17:26:47.292Z,28.43
2018-11-26T17:29:15.486Z,26.77
2018-11-26T17:31:43.699Z,29.43
2018-11-26T17:34:11.940Z,29.23
2018-11-26T17:36:40.166Z,33.87
2018-11-26T17:39:09.076Z,27.97
2018-11-26T17:41:37.312Z,29.63
2018-11-26T17:44:05.531Z,30.13
2018-11-26T17:46:33.776Z,32.27
2018-11-26T17:49:02.160Z,27.90
2018-11-26T17:51:30.489Z,31.57
2018-11-26T17:53:58.839Z,29.20
2018-11-26T17:56:29.183Z,28.43
2018-11-26T17:58:57.379Z,28.30
2018-11-26T18:01:31.084Z,25.60
2018-11-26T18:03:59.324Z,30.43
2018-11-26T18:06:27.584Z,27.73
2018-11-26T18:08:55.778Z,29.23
2018-11-26T18:11:24.327Z,31.50
2018-11-26T18:13:52.512Z,29.27
2018-11-26T18:16:20.732Z,30.30
2018-11-26T18:18:49.031Z,33.10
2018-11-26T18:21:17.257Z,29.97
2018-11-26T18:23:45.461Z,30.70
2018-11-26T18:26:14.320Z,28.40
2018-11-26T18:28:42.518Z,30.57
2018-11-26T18:31:10.737Z,29.83
2018-11-26T18:33:38.959Z,30.13
2018-11-26T18:36:07.459Z,30.57
2018-11-26T18:38:35.649Z,29.87
2018-11-26T18:41:04.333Z,33.43
2018-11-26T18:43:32.780Z,33.73
2018-11-26T18:46:00.984Z,31.63
2018-11-26T18:48:29.193Z,29.00
2018-11-26T18:50:57.452Z,33.30
2018-11-26T18:53:26.733Z,31.53
2018-11-26T18:55:54.921Z,32.80
2018-11-26T18:58:23.126Z,27.83
2018-11-26T19:00:53.016Z,36.20
2018-11-26T19:03:22.178Z,40.43
2018-11-26T19:05:51.717Z,35.57
2018-11-26T19:08:20.643Z,40.73
2018-11-26T19:10:51.729Z,30.90
2018-11-26T19:13:23.733Z,31.83
2018-11-26T19:15:54.921Z,33.43
2018-11-26T19:18:24.857Z,41.63
2018-11-26T19:20:53.328Z,37.10
2018-11-26T19:23:21.932Z,35.90
2018-11-26T19:25:51.640Z,38.23
2018-11-26T19:28:20.404Z,33.93
2018-11-26T19:30:48.079Z,29.67
2018-11-26T19:33:16.284Z,35.30
2018-11-26T19:35:44.532Z,48.20
2018-11-26T19:38:12.720Z,65.43
2018-11-26T19:40:41.729Z,67.43
2018-11-26T19:43:09.937Z,45.93
2018-11-26T19:45:38.256Z,35.73
2018-11-26T19:48:07.210Z,30.83
2018-11-26T19:50:35.462Z,36.60
2018-11-26T19:53:04.248Z,30.17
2018-11-26T19:55:32.440Z,33.67
2018-11-26T19:58:00.660Z,32.70
2018-11-26T20:00:29.933Z,30.13
2018-11-26T20:03:05.039Z,30.67
2018-11-26T20:05:39.157Z,33.67
2018-11-26T20:08:07.373Z,32.37
2018-11-26T20:10:35.560Z,34.30
2018-11-26T20:13:04.624Z,29.97
2018-11-26T20:15:32.919Z,32.47
2018-11-26T20:18:01.228Z,29.17
2018-11-26T20:20:29.685Z,31.33
2018-11-26T20:22:57.893Z,35.40
2018-11-26T20:25:26.154Z,31.97
2018-11-26T20:27:54.320Z,29.87
2018-11-26T20:30:22.485Z,29.10
2018-11-26T20:32:51.121Z,30.63
2018-11-26T20:35:19.308Z,27.47
2018-11-26T20:37:47.637Z,26.90
2018-11-26T20:40:16.722Z,30.37
2018-11-26T20:42:48.616Z,27.70
2018-11-26T20:45:16.992Z,27.73
2018-11-26T20:47:46.008Z,26.17
2018-11-26T20:50:23.324Z,27.80
2018-11-26T20:52:51.497Z,25.20
2018-11-26T20:55:21.532Z,23.83
2018-11-26T20:57:50.504Z,28.17
2018-11-26T21:00:22.860Z,26.03
2018-11-26T21:02:52.648Z,30.30
2018-11-26T21:05:20.905Z,25.33
2018-11-26T21:07:49.171Z,24.37
2018-11-26T21:10:17.532Z,22.23
2018-11-26T21:12:45.924Z,22.57
2018-11-26T21:15:15.101Z,22.47
2018-11-26T21:17:45.653Z,22.87
2018-11-26T21:20:17.546Z,23.60
2018-11-26T21:22:45.730Z,26.43
2018-11-26T21:25:15.184Z,24.30
2018-11-26T21:27:43.437Z,26.30
2018-11-26T21:30:17.656Z,21.70
2018-11-26T21:32:46.829Z,22.80
2018-11-26T21:35:16.775Z,22.57
2018-11-26T21:37:47.324Z,20.23
2018-11-26T21:40:20.235Z,22.20
2018-11-26T21:42:44.990Z,24.60
2018-11-26T21:45:17.191Z,21.60
2018-11-26T21:47:46.340Z,23.73
2018-11-26T21:50:15.049Z,20.97
2018-11-26T21:52:43.481Z,23.10
2018-11-26T21:55:12.773Z,20.40
2018-11-26T21:57:41.018Z,22.57
2018-11-26T22:00:22.164Z,21.53
2018-11-26T22:02:50.632Z,18.10
2018-11-26T22:05:18.919Z,19.70
2018-11-26T22:07:47.288Z,22.50
2018-11-26T22:10:17.550Z,21.27
2018-11-26T22:12:48.874Z,20.20
2018-11-26T22:15:17.224Z,19.30
2018-11-26T22:17:45.582Z,21.30
2018-11-26T22:20:23.724Z,18.37
2018-11-26T22:22:51.970Z,20.07
2018-11-26T22:25:20.861Z,19.33
2018-11-26T22:27:49.149Z,15.43
2018-11-26T22:30:18.375Z,19.20
2018-11-26T22:32:46.602Z,20.43
2018-11-26T22:35:14.877Z,17.53
2018-11-26T22:37:43.153Z,17.03
2018-11-26T22:40:12.496Z,16.97
2018-11-26T22:42:41.055Z,20.90
2018-11-26T22:45:13.140Z,20.67
2018-11-26T22:47:41.996Z,20.03
2018-11-26T22:50:13.349Z,22.23
2018-11-26T22:52:41.636Z,23.23
2018-11-26T22:55:11.733Z,19.30
2018-11-26T22:57:40.084Z,19.90
2018-11-26T23:00:16.476Z,20.43
2018-11-26T23:02:44.676Z,19.97
2018-11-26T23:05:12.892Z,18.97
2018-11-26T23:07:41.100Z,19.20
2018-11-26T23:10:09.652Z,18.00
2018-11-26T23:12:37.844Z,24.13
2018-11-26T23:15:09.302Z,22.30
2018-11-26T23:17:37.484Z,19.30
2018-11-26T23:20:08.857Z,20.37
2018-11-26T23:22:37.047Z,21.47
2018-11-26T23:25:06.849Z,19.93
2018-11-26T23:27:35.062Z,20.60
2018-11-26T23:30:03.505Z,19.23
2018-11-26T23:32:31.712Z,21.03
2018-11-26T23:34:59.889Z,20.50
2018-11-26T23:37:28.056Z,21.63
2018-11-26T23:39:56.241Z,20.07
2018-11-26T23:42:24.458Z,21.33
2018-11-26T23:44:52.652Z,20.60
2018-11-26T23:47:20.957Z,19.53
2018-11-26T23:49:49.648Z,20.57
2018-11-26T23:52:17.845Z,18.83
2018-11-26T23:54:46.069Z,18.87
2018-11-26T23:57:15.723Z,18.37
2018-11-26T23:59:43.955Z,19.33
